createdAt,value
2023-05-19T00:00:11.081Z,15.22
2023-05-19T00:01:12.084Z,15.19
2023-05-19T00:02:12.112Z,15.19
2023-05-19T00:03:11.154Z,15.20
2023-05-19T00:04:11.083Z,15.21
2023-05-19T00:05:11.090Z,15.14
2023-05-19T00:06:11.141Z,15.15
2023-05-19T00:07:12.078Z,15.11
2023-05-19T00:08:12.086Z,15.08
2023-05-19T00:09:11.079Z,15.06
2023-05-19T00:10:11.083Z,15.05
2023-05-19T00:11:11.087Z,15.07
2023-05-19T00:12:11.086Z,15.03
2023-05-19T00:13:11.080Z,15.05
2023-05-19T00:14:11.084Z,15.03
2023-05-19T00:15:11.080Z,15.02
2023-05-19T00:16:11.127Z,14.96
2023-05-19T00:17:11.088Z,14.99
2023-05-19T00:18:12.105Z,14.95
2023-05-19T00:19:11.173Z,14.99
2023-05-19T00:20:11.077Z,14.99
2023-05-19T00:21:11.088Z,14.99
2023-05-19T00:22:11.085Z,14.98
2023-05-19T00:23:11.079Z,14.97
2023-05-19T00:24:11.086Z,14.99
2023-05-19T00:25:11.082Z,14.90
2023-05-19T00:26:11.083Z,14.93
2023-05-19T00:27:11.083Z,14.89
2023-05-19T00:28:11.083Z,14.91
2023-05-19T00:29:11.078Z,14.92
2023-05-19T00:30:11.097Z,14.94
2023-05-19T00:31:11.081Z,14.93
2023-05-19T00:32:11.199Z,14.93
2023-05-19T00:33:11.136Z,14.93
2023-05-19T00:34:11.085Z,14.94
2023-05-19T00:35:11.084Z,14.93
2023-05-19T00:36:11.128Z,14.94
2023-05-19T00:37:11.089Z,14.95
2023-05-19T00:38:11.102Z,14.96
2023-05-19T00:39:11.087Z,14.94
2023-05-19T00:40:11.088Z,14.92
2023-05-19T00:41:11.082Z,14.93
2023-05-19T00:42:11.086Z,14.95
2023-05-19T00:43:12.102Z,14.94
2023-05-19T00:44:11.081Z,14.95
2023-05-19T00:45:11.087Z,14.92
2023-05-19T00:46:11.242Z,14.89
2023-05-19T00:47:11.085Z,14.89
2023-05-19T00:48:11.088Z,14.92
2023-05-19T00:49:11.087Z,14.89
2023-05-19T00:50:11.085Z,14.87
2023-05-19T00:51:11.085Z,14.87
2023-05-19T00:52:11.089Z,14.88
2023-05-19T00:53:11.093Z,14.88
2023-05-19T00:54:11.089Z,14.89
2023-05-19T00:55:11.090Z,14.86
2023-05-19T00:56:11.084Z,14.82
2023-05-19T00:57:11.084Z,14.77
2023-05-19T00:58:11.092Z,14.82
2023-05-19T00:59:11.089Z,14.76
2023-05-19T01:00:11.090Z,14.76
2023-05-19T01:01:11.114Z,14.80
2023-05-19T01:02:11.060Z,14.82
2023-05-19T01:03:14.210Z,14.82
2023-05-19T01:04:13.069Z,14.86
2023-05-19T01:05:11.072Z,14.84
2023-05-19T01:06:11.059Z,14.82
2023-05-19T01:07:11.072Z,14.78
2023-05-19T01:08:11.078Z,14.83
2023-05-19T01:09:11.060Z,14.85
2023-05-19T01:10:11.077Z,14.84
2023-05-19T01:11:11.065Z,14.84
2023-05-19T01:12:11.060Z,14.80
2023-05-19T01:13:11.071Z,14.81
2023-05-19T01:14:11.064Z,14.83
2023-05-19T01:15:11.064Z,14.84
2023-05-19T01:16:22.096Z,14.83
2023-05-19T01:17:19.063Z,14.86
2023-05-19T01:18:13.082Z,14.85
2023-05-19T01:19:19.123Z,14.84
2023-05-19T01:20:16.078Z,14.83
2023-05-19T01:21:19.068Z,14.84
2023-05-19T01:22:23.183Z,14.82
2023-05-19T01:23:19.073Z,14.73
2023-05-19T01:24:19.079Z,14.76
2023-05-19T01:25:19.077Z,14.80
2023-05-19T01:26:19.069Z,14.80
2023-05-19T01:27:19.070Z,14.81
2023-05-19T01:28:19.063Z,14.81
2023-05-19T01:29:19.080Z,14.83
2023-05-19T01:30:21.065Z,14.82
2023-05-19T01:31:11.075Z,14.76
2023-05-19T01:32:11.111Z,14.77
2023-05-19T01:33:11.070Z,14.73
2023-05-19T01:34:11.069Z,14.74
2023-05-19T01:35:12.061Z,14.74
2023-05-19T01:36:12.070Z,14.72
2023-05-19T01:37:12.069Z,14.71
2023-05-19T01:38:11.078Z,14.71
2023-05-19T01:39:11.072Z,14.71
2023-05-19T01:40:11.077Z,14.72
2023-05-19T01:41:11.064Z,14.74
2023-05-19T01:42:11.085Z,14.74
2023-05-19T01:43:12.093Z,14.74
2023-05-19T01:44:11.082Z,14.74
2023-05-19T01:45:11.080Z,14.66
2023-05-19T01:46:11.152Z,14.62
2023-05-19T01:47:11.070Z,14.63
2023-05-19T01:48:11.432Z,14.63
2023-05-19T01:49:11.073Z,14.64
2023-05-19T01:50:11.086Z,14.64
2023-05-19T01:51:11.082Z,14.65
2023-05-19T01:52:11.080Z,14.67
2023-05-19T01:53:11.071Z,14.68
2023-05-19T01:54:11.075Z,14.70
2023-05-19T01:55:11.077Z,14.67
2023-05-19T01:56:11.072Z,14.70
2023-05-19T01:57:19.089Z,14.69
2023-05-19T01:58:20.081Z,14.70
2023-05-19T01:59:21.072Z,14.73
2023-05-19T02:00:19.371Z,14.73
2023-05-19T02:01:21.107Z,14.72
2023-05-19T02:02:19.087Z,14.70
2023-05-19T02:03:19.084Z,14.69
2023-05-19T02:04:19.166Z,14.69
2023-05-19T02:05:19.075Z,14.66
2023-05-19T02:06:19.083Z,14.68
2023-05-19T02:07:19.090Z,14.68
2023-05-19T02:08:19.079Z,14.68
2023-05-19T02:09:19.078Z,14.68
2023-05-19T02:10:18.081Z,14.68
2023-05-19T02:11:19.093Z,14.69
2023-05-19T02:12:20.078Z,14.69
2023-05-19T02:13:13.073Z,14.71
2023-05-19T02:14:19.076Z,14.70
2023-05-19T02:15:15.086Z,14.69
2023-05-19T02:16:11.093Z,14.68
2023-05-19T02:17:12.071Z,14.70
2023-05-19T02:18:12.085Z,14.70
2023-05-19T02:19:21.137Z,14.70
2023-05-19T02:20:11.074Z,14.71
2023-05-19T02:21:11.075Z,14.71
2023-05-19T02:22:11.084Z,14.68
2023-05-19T02:23:11.101Z,14.64
2023-05-19T02:24:11.095Z,14.63
2023-05-19T02:25:11.094Z,14.63
2023-05-19T02:26:11.087Z,14.62
2023-05-19T02:27:11.081Z,14.58
2023-05-19T02:28:11.090Z,14.60
2023-05-19T02:29:11.093Z,14.60
2023-05-19T02:30:11.091Z,14.58
2023-05-19T02:31:12.085Z,14.55
2023-05-19T02:32:11.213Z,14.52
2023-05-19T02:33:11.134Z,14.52
2023-05-19T02:34:11.090Z,14.50
2023-05-19T02:35:11.075Z,14.49
2023-05-19T02:36:11.076Z,14.46
2023-05-19T02:37:11.087Z,14.44
2023-05-19T02:38:11.086Z,14.42
2023-05-19T02:39:11.095Z,14.38
2023-05-19T02:40:11.121Z,14.38
2023-05-19T02:41:11.075Z,14.36
2023-05-19T02:42:11.088Z,14.37
2023-05-19T02:43:11.096Z,14.35
2023-05-19T02:44:11.078Z,14.31
2023-05-19T02:45:11.076Z,14.30
2023-05-19T02:46:11.099Z,14.29
2023-05-19T02:47:11.076Z,14.27
2023-05-19T02:48:11.150Z,14.26
2023-05-19T02:49:11.088Z,14.20
2023-05-19T02:50:11.077Z,14.18
2023-05-19T02:51:11.076Z,14.21
2023-05-19T02:52:11.082Z,14.20
2023-05-19T02:53:11.080Z,14.17
2023-05-19T02:54:11.074Z,14.15
2023-05-19T02:55:11.080Z,14.14
2023-05-19T02:56:11.082Z,14.11
2023-05-19T02:57:11.074Z,14.14
2023-05-19T02:58:11.083Z,14.15
2023-05-19T02:59:11.081Z,14.16
2023-05-19T03:00:11.077Z,14.09
2023-05-19T03:01:11.097Z,14.08
2023-05-19T03:02:11.144Z,14.03
2023-05-19T03:03:11.144Z,14.02
2023-05-19T03:04:11.105Z,14.04
2023-05-19T03:05:11.081Z,14.05
2023-05-19T03:06:12.083Z,14.00
2023-05-19T03:07:11.095Z,14.03
2023-05-19T03:08:11.082Z,14.00
2023-05-19T03:09:11.077Z,13.96
2023-05-19T03:10:11.083Z,13.94
2023-05-19T03:11:11.081Z,13.94
2023-05-19T03:12:11.078Z,13.92
2023-05-19T03:13:11.085Z,13.93
2023-05-19T03:14:11.082Z,13.93
2023-05-19T03:15:11.081Z,13.96
2023-05-19T03:16:11.148Z,13.95
2023-05-19T03:17:13.186Z,13.94
2023-05-19T03:18:11.166Z,13.92
2023-05-19T03:19:23.142Z,13.90
2023-05-19T03:20:11.106Z,13.90
2023-05-19T03:21:11.093Z,13.90
2023-05-19T03:22:11.097Z,13.82
2023-05-19T03:23:11.103Z,13.82
2023-05-19T03:24:11.091Z,13.83
2023-05-19T03:25:11.082Z,13.81
2023-05-19T03:26:11.093Z,13.77
2023-05-19T03:27:11.084Z,13.75
2023-05-19T03:28:11.083Z,13.74
2023-05-19T03:29:11.095Z,13.78
2023-05-19T03:30:11.093Z,13.78
2023-05-19T03:31:11.088Z,13.79
2023-05-19T03:32:11.115Z,13.65
2023-05-19T03:33:11.349Z,13.64
2023-05-19T03:34:11.093Z,13.66
2023-05-19T03:35:11.092Z,13.65
2023-05-19T03:36:11.108Z,13.68
2023-05-19T03:37:11.102Z,13.68
2023-05-19T03:38:11.089Z,13.68
2023-05-19T03:39:11.090Z,13.65
2023-05-19T03:40:11.090Z,13.67
2023-05-19T03:41:11.086Z,13.70
2023-05-19T03:42:11.101Z,13.71
2023-05-19T03:43:11.097Z,13.70
2023-05-19T03:44:11.097Z,13.71
2023-05-19T03:45:11.093Z,13.73
2023-05-19T03:46:11.153Z,13.72
2023-05-19T03:47:11.094Z,13.71
2023-05-19T03:48:11.172Z,13.68
2023-05-19T03:49:11.097Z,13.66
2023-05-19T03:50:11.109Z,13.67
2023-05-19T03:51:11.093Z,13.67
2023-05-19T03:52:11.098Z,13.65
2023-05-19T03:53:11.093Z,13.64
2023-05-19T03:54:11.090Z,13.59
2023-05-19T03:55:11.103Z,13.61
2023-05-19T03:56:11.098Z,13.60
2023-05-19T03:57:11.099Z,13.60
2023-05-19T03:58:11.100Z,13.58
2023-05-19T03:59:11.099Z,13.61
2023-05-19T04:00:11.120Z,13.61
2023-05-19T04:01:11.062Z,13.61
2023-05-19T04:02:11.107Z,13.60
2023-05-19T04:03:11.219Z,13.59
2023-05-19T04:04:11.145Z,13.59
2023-05-19T04:05:11.070Z,13.61
2023-05-19T04:06:11.065Z,13.58
2023-05-19T04:07:11.059Z,13.61
2023-05-19T04:08:11.071Z,13.60
2023-05-19T04:09:13.098Z,13.64
2023-05-19T04:10:11.064Z,13.65
2023-05-19T04:11:11.067Z,13.64
2023-05-19T04:12:11.068Z,13.63
2023-05-19T04:13:11.065Z,13.63
2023-05-19T04:14:11.087Z,13.66
2023-05-19T04:15:11.066Z,13.66
2023-05-19T04:16:11.131Z,13.70
2023-05-19T04:17:11.071Z,13.69
2023-05-19T04:18:11.114Z,13.68
2023-05-19T04:19:11.077Z,13.65
2023-05-19T04:20:11.068Z,13.65
2023-05-19T04:21:12.071Z,13.69
2023-05-19T04:22:11.068Z,13.70
2023-05-19T04:23:11.073Z,13.74
2023-05-19T04:24:11.069Z,13.74
2023-05-19T04:25:11.069Z,13.76
2023-05-19T04:26:11.067Z,13.71
2023-05-19T04:27:15.069Z,13.76
2023-05-19T04:28:11.070Z,13.80
2023-05-19T04:29:11.068Z,13.79
2023-05-19T04:30:11.069Z,13.80
2023-05-19T04:31:14.098Z,13.82
2023-05-19T04:32:11.072Z,13.82
2023-05-19T04:33:11.128Z,13.84
2023-05-19T04:34:11.071Z,13.85
2023-05-19T04:35:11.070Z,13.87
2023-05-19T04:36:12.078Z,13.88
2023-05-19T04:37:11.070Z,13.89
2023-05-19T04:38:11.066Z,13.92
2023-05-19T04:39:13.080Z,13.90
2023-05-19T04:40:11.155Z,13.90
2023-05-19T04:41:11.111Z,13.88
2023-05-19T04:42:11.074Z,13.88
2023-05-19T04:43:11.070Z,13.85
2023-05-19T04:44:11.068Z,13.88
2023-05-19T04:45:12.072Z,13.92
2023-05-19T04:46:13.838Z,13.93
2023-05-19T04:47:11.093Z,13.91
2023-05-19T04:48:11.076Z,13.92
2023-05-19T04:49:11.073Z,13.93
2023-05-19T04:50:11.163Z,13.96
2023-05-19T04:51:11.076Z,13.96
2023-05-19T04:52:11.109Z,13.96
2023-05-19T04:53:11.069Z,13.95
2023-05-19T04:54:11.080Z,13.95
2023-05-19T04:55:11.074Z,13.97
2023-05-19T04:56:11.069Z,13.97
2023-05-19T04:57:11.073Z,13.93
2023-05-19T04:58:11.073Z,13.94
2023-05-19T04:59:11.075Z,13.92
2023-05-19T05:00:12.088Z,13.93
2023-05-19T05:01:11.074Z,13.95
2023-05-19T05:02:11.194Z,13.94
2023-05-19T05:03:11.147Z,14.00
2023-05-19T05:04:11.160Z,13.99
2023-05-19T05:05:11.079Z,13.93
2023-05-19T05:06:11.073Z,13.94
2023-05-19T05:07:11.069Z,13.97
2023-05-19T05:08:11.080Z,14.01
2023-05-19T05:09:11.073Z,14.01
2023-05-19T05:10:11.079Z,14.05
2023-05-19T05:11:11.069Z,14.04
2023-05-19T05:12:11.091Z,14.05
2023-05-19T05:13:11.959Z,14.05
2023-05-19T05:14:11.069Z,14.02
2023-05-19T05:15:11.072Z,14.04
2023-05-19T05:16:11.122Z,14.05
2023-05-19T05:17:11.074Z,14.02
2023-05-19T05:18:11.109Z,14.03
2023-05-19T05:19:11.170Z,14.04
2023-05-19T05:20:11.070Z,14.03
2023-05-19T05:21:11.077Z,14.00
2023-05-19T05:22:11.069Z,14.00
2023-05-19T05:23:11.073Z,14.02
2023-05-19T05:24:11.077Z,14.03
2023-05-19T05:25:11.073Z,14.01
2023-05-19T05:26:17.072Z,14.04
2023-05-19T05:27:11.079Z,14.04
2023-05-19T05:28:11.072Z,14.06
2023-05-19T05:29:11.081Z,14.05
2023-05-19T05:30:11.068Z,14.09
2023-05-19T05:31:11.083Z,14.11
2023-05-19T05:32:11.133Z,14.14
2023-05-19T05:33:11.202Z,14.20
2023-05-19T05:34:11.073Z,14.18
2023-05-19T05:35:11.067Z,14.19
2023-05-19T05:36:11.073Z,14.20
2023-05-19T05:37:13.114Z,14.21
2023-05-19T05:38:11.067Z,14.24
2023-05-19T05:39:11.084Z,14.27
2023-05-19T05:40:11.074Z,14.30
2023-05-19T05:41:11.068Z,14.31
2023-05-19T05:42:11.102Z,14.34
2023-05-19T05:43:11.071Z,14.35
2023-05-19T05:44:11.073Z,14.35
2023-05-19T05:45:11.077Z,14.33
2023-05-19T05:46:11.151Z,14.34
2023-05-19T05:47:11.068Z,14.36
2023-05-19T05:48:11.107Z,14.33
2023-05-19T05:49:11.073Z,14.31
2023-05-19T05:50:11.087Z,14.35
2023-05-19T05:51:11.088Z,14.31
2023-05-19T05:52:12.077Z,14.35
2023-05-19T05:53:15.077Z,14.39
2023-05-19T05:54:11.079Z,14.42
2023-05-19T05:55:11.078Z,14.39
2023-05-19T05:56:11.076Z,14.37
2023-05-19T05:57:11.089Z,14.34
2023-05-19T05:58:11.079Z,14.26
2023-05-19T05:59:11.073Z,14.21
2023-05-19T06:00:11.081Z,14.22
2023-05-19T06:01:14.094Z,14.18
2023-05-19T06:02:11.081Z,14.14
2023-05-19T06:03:11.276Z,14.13
2023-05-19T06:04:11.080Z,14.13
2023-05-19T06:05:11.124Z,14.06
2023-05-19T06:06:11.084Z,14.02
2023-05-19T06:07:11.099Z,14.02
2023-05-19T06:08:11.086Z,14.00
2023-05-19T06:09:11.089Z,13.96
2023-05-19T06:10:11.081Z,13.97
2023-05-19T06:11:13.092Z,13.96
2023-05-19T06:12:11.098Z,13.94
2023-05-19T06:13:11.084Z,13.93
2023-05-19T06:14:11.098Z,13.84
2023-05-19T06:15:11.093Z,13.86
2023-05-19T06:16:11.150Z,13.86
2023-05-19T06:17:11.078Z,13.86
2023-05-19T06:18:11.145Z,13.89
2023-05-19T06:19:11.182Z,13.85
2023-05-19T06:20:11.107Z,13.83
2023-05-19T06:21:11.091Z,13.84
2023-05-19T06:22:11.080Z,13.82
2023-05-19T06:23:11.092Z,13.83
2023-05-19T06:24:11.089Z,13.84
2023-05-19T06:25:11.084Z,13.85
2023-05-19T06:26:11.087Z,13.81
2023-05-19T06:27:11.101Z,13.84
2023-05-19T06:28:11.089Z,13.88
2023-05-19T06:29:11.087Z,13.92
2023-05-19T06:30:12.092Z,13.94
2023-05-19T06:31:11.227Z,13.94
2023-05-19T06:32:11.092Z,13.95
2023-05-19T06:33:11.158Z,13.93
2023-05-19T06:34:11.086Z,13.95
2023-05-19T06:35:11.080Z,13.94
2023-05-19T06:36:11.092Z,13.92
2023-05-19T06:37:11.089Z,14.00
2023-05-19T06:38:11.089Z,14.07
2023-05-19T06:39:11.090Z,14.15
2023-05-19T06:40:11.087Z,14.20
2023-05-19T06:41:11.091Z,14.27
2023-05-19T06:42:11.100Z,14.35
2023-05-19T06:43:11.088Z,14.32
2023-05-19T06:44:11.086Z,14.36
2023-05-19T06:45:11.095Z,14.44
2023-05-19T06:46:11.086Z,14.43
2023-05-19T06:47:11.183Z,14.41
2023-05-19T06:48:11.141Z,14.43
2023-05-19T06:49:11.092Z,14.43
2023-05-19T06:50:11.104Z,14.43
2023-05-19T06:51:11.097Z,14.51
2023-05-19T06:52:11.092Z,14.47
2023-05-19T06:53:11.093Z,14.41
2023-05-19T06:54:11.137Z,14.45
2023-05-19T06:55:11.104Z,14.49
2023-05-19T06:56:11.087Z,14.55
2023-05-19T06:57:11.097Z,14.56
2023-05-19T06:58:11.101Z,14.57
2023-05-19T06:59:11.091Z,14.62
2023-05-19T07:00:15.958Z,14.63
2023-05-19T07:01:11.065Z,14.69
2023-05-19T07:02:11.125Z,14.76
2023-05-19T07:03:11.202Z,14.83
2023-05-19T07:04:11.151Z,14.90
2023-05-19T07:05:11.066Z,14.98
2023-05-19T07:06:11.070Z,15.02
2023-05-19T07:07:11.068Z,15.06
2023-05-19T07:08:12.066Z,15.08
2023-05-19T07:09:11.063Z,15.12
2023-05-19T07:10:11.075Z,15.15
2023-05-19T07:11:11.063Z,15.21
2023-05-19T07:12:11.072Z,15.25
2023-05-19T07:13:11.067Z,15.25
2023-05-19T07:14:11.069Z,15.29
2023-05-19T07:15:11.068Z,15.40
2023-05-19T07:16:11.096Z,15.40
2023-05-19T07:17:11.069Z,15.34
2023-05-19T07:18:11.150Z,15.44
2023-05-19T07:19:11.144Z,15.49
2023-05-19T07:20:15.072Z,15.46
2023-05-19T07:21:11.075Z,15.52
2023-05-19T07:22:11.070Z,15.53
2023-05-19T07:23:11.087Z,15.56
2023-05-19T07:24:11.077Z,15.59
2023-05-19T07:25:11.067Z,15.57
2023-05-19T07:26:11.070Z,15.64
2023-05-19T07:27:11.074Z,15.54
2023-05-19T07:28:11.069Z,15.60
2023-05-19T07:29:11.065Z,15.64
2023-05-19T07:30:11.074Z,15.69
2023-05-19T07:31:11.068Z,15.69
2023-05-19T07:32:11.127Z,15.68
2023-05-19T07:33:11.144Z,15.72
2023-05-19T07:34:11.068Z,15.73
2023-05-19T07:35:11.064Z,15.77
2023-05-19T07:36:11.076Z,15.81
2023-05-19T07:37:11.079Z,15.83
2023-05-19T07:38:11.085Z,15.85
2023-05-19T07:39:11.179Z,15.91
2023-05-19T07:40:13.123Z,15.94
2023-05-19T07:41:11.074Z,15.86
2023-05-19T07:42:11.071Z,15.86
2023-05-19T07:43:11.069Z,15.92
2023-05-19T07:44:11.074Z,15.96
2023-05-19T07:45:11.065Z,16.07
2023-05-19T07:46:11.145Z,16.16
2023-05-19T07:47:11.069Z,16.21
2023-05-19T07:48:11.097Z,16.25
2023-05-19T07:49:11.068Z,16.25
2023-05-19T07:50:11.074Z,16.20
2023-05-19T07:51:13.077Z,16.25
2023-05-19T07:52:11.071Z,16.28
2023-05-19T07:53:11.067Z,16.31
2023-05-19T07:54:12.071Z,16.29
2023-05-19T07:55:11.076Z,16.29
2023-05-19T07:56:11.071Z,16.27
2023-05-19T07:57:11.072Z,16.23
2023-05-19T07:58:11.066Z,16.18
2023-05-19T07:59:11.069Z,16.15
2023-05-19T08:00:15.074Z,16.12
2023-05-19T08:01:11.072Z,16.12
2023-05-19T08:02:11.116Z,16.13
2023-05-19T08:03:11.242Z,16.20
2023-05-19T08:04:12.891Z,16.19
2023-05-19T08:05:11.070Z,16.12
2023-05-19T08:06:12.074Z,16.18
2023-05-19T08:07:11.072Z,16.21
2023-05-19T08:08:11.069Z,16.22
2023-05-19T08:09:11.085Z,16.26
2023-05-19T08:10:11.093Z,16.34
2023-05-19T08:11:11.067Z,16.41
2023-05-19T08:12:11.070Z,16.42
2023-05-19T08:13:11.094Z,16.46
2023-05-19T08:14:11.075Z,16.54
2023-05-19T08:15:11.074Z,16.63
2023-05-19T08:16:11.111Z,16.63
2023-05-19T08:17:11.081Z,16.67
2023-05-19T08:18:11.110Z,16.61
2023-05-19T08:19:11.146Z,16.67
2023-05-19T08:20:12.091Z,16.77
2023-05-19T08:21:11.076Z,16.87
2023-05-19T08:22:11.083Z,16.92
2023-05-19T08:23:11.078Z,17.01
2023-05-19T08:24:11.075Z,17.23
2023-05-19T08:25:11.088Z,17.35
2023-05-19T08:26:11.075Z,17.46
2023-05-19T08:27:11.078Z,17.57
2023-05-19T08:28:11.083Z,17.71
2023-05-19T08:29:11.082Z,17.68
2023-05-19T08:30:11.104Z,17.76
2023-05-19T08:31:11.108Z,17.83
2023-05-19T08:32:13.062Z,17.89
2023-05-19T08:33:11.165Z,18.02
2023-05-19T08:34:11.093Z,18.09
2023-05-19T08:35:11.078Z,18.10
2023-05-19T08:36:11.081Z,18.24
2023-05-19T08:37:11.094Z,18.24
2023-05-19T08:38:11.082Z,18.35
2023-05-19T08:39:11.080Z,18.48
2023-05-19T08:40:15.083Z,18.56
2023-05-19T08:41:11.085Z,18.66
2023-05-19T08:42:11.085Z,18.68
2023-05-19T08:43:11.084Z,18.81
2023-05-19T08:44:11.080Z,18.85
2023-05-19T08:45:11.095Z,18.90
2023-05-19T08:46:13.114Z,18.98
2023-05-19T08:47:15.081Z,19.06
2023-05-19T08:48:11.120Z,19.05
2023-05-19T08:49:13.087Z,19.19
2023-05-19T08:50:11.095Z,19.25
2023-05-19T08:51:19.096Z,19.31
2023-05-19T08:52:21.084Z,19.34
2023-05-19T08:54:17.089Z,19.26
2023-05-19T08:55:19.080Z,19.23
2023-05-19T08:56:19.091Z,19.18
2023-05-19T08:57:11.084Z,19.16
2023-05-19T08:58:11.080Z,19.18
2023-05-19T08:59:11.081Z,19.23
2023-05-19T09:00:14.081Z,19.27
2023-05-19T09:01:13.184Z,19.27
2023-05-19T09:02:11.085Z,19.27
2023-05-19T09:03:23.052Z,19.24
2023-05-19T09:04:13.185Z,19.20
2023-05-19T09:05:11.158Z,19.20
2023-05-19T09:06:11.090Z,19.26
2023-05-19T09:07:11.085Z,19.10
2023-05-19T09:08:11.078Z,19.18
2023-05-19T09:09:11.088Z,19.25
2023-05-19T09:10:11.083Z,19.22
2023-05-19T09:11:13.088Z,19.16
2023-05-19T09:12:13.096Z,19.13
2023-05-19T09:13:11.097Z,19.26
2023-05-19T09:14:11.085Z,19.10
2023-05-19T09:15:11.090Z,19.12
2023-05-19T09:16:11.131Z,19.12
2023-05-19T09:17:11.124Z,19.17
2023-05-19T09:18:11.156Z,18.94
2023-05-19T09:19:15.099Z,18.96
2023-05-19T09:20:14.084Z,18.93
2023-05-19T09:21:11.082Z,18.97
2023-05-19T09:22:11.092Z,18.90
2023-05-19T09:23:14.124Z,18.92
2023-05-19T09:24:11.088Z,18.92
2023-05-19T09:25:19.125Z,19.03
2023-05-19T09:26:11.090Z,19.02
2023-05-19T09:27:13.088Z,19.10
2023-05-19T09:28:11.086Z,19.05
2023-05-19T09:29:15.126Z,19.03
2023-05-19T09:30:11.084Z,19.18
2023-05-19T09:31:11.115Z,19.30
2023-05-19T09:32:11.112Z,19.37
2023-05-19T09:33:16.114Z,19.31
2023-05-19T09:34:15.080Z,19.21
2023-05-19T09:35:11.088Z,19.29
2023-05-19T09:36:11.125Z,19.36
2023-05-19T09:37:12.088Z,19.27
2023-05-19T09:38:15.088Z,19.16
2023-05-19T09:39:15.097Z,19.12
2023-05-19T09:40:15.091Z,19.18
2023-05-19T09:41:11.090Z,19.18
2023-05-19T09:42:11.096Z,19.17
2023-05-19T09:43:11.091Z,19.14
2023-05-19T09:44:14.094Z,19.10
2023-05-19T09:45:11.087Z,19.11
2023-05-19T09:46:12.189Z,19.27
2023-05-19T09:47:11.086Z,19.23
2023-05-19T09:48:11.093Z,19.21
2023-05-19T09:49:11.098Z,19.29
2023-05-19T09:50:11.096Z,19.30
2023-05-19T09:51:11.166Z,19.29
2023-05-19T09:52:12.635Z,19.38
2023-05-19T09:53:11.087Z,19.38
2023-05-19T09:54:14.091Z,19.43
2023-05-19T09:55:14.104Z,19.50
2023-05-19T09:56:11.088Z,19.48
2023-05-19T09:57:11.089Z,19.57
2023-05-19T09:58:12.724Z,19.70
2023-05-19T09:59:11.092Z,19.79
2023-05-19T10:00:17.144Z,19.87
2023-05-19T10:01:11.092Z,20.01
2023-05-19T10:02:16.069Z,20.06
2023-05-19T10:03:11.073Z,20.16
2023-05-19T10:04:11.075Z,20.25
2023-05-19T10:05:14.098Z,20.16
2023-05-19T10:06:11.061Z,20.39
2023-05-19T10:07:12.067Z,20.68
2023-05-19T10:08:11.078Z,20.69
2023-05-19T10:09:11.065Z,20.73
2023-05-19T10:10:12.065Z,20.85
2023-05-19T10:11:11.071Z,20.87
2023-05-19T10:12:11.077Z,20.96
2023-05-19T10:13:11.068Z,20.99
2023-05-19T10:14:11.071Z,20.96
2023-05-19T10:15:13.062Z,20.94
2023-05-19T10:16:11.127Z,20.76
2023-05-19T10:17:11.076Z,20.66
2023-05-19T10:18:13.129Z,20.44
2023-05-19T10:19:11.081Z,20.30
2023-05-19T10:20:11.066Z,20.20
2023-05-19T10:21:11.067Z,20.00
2023-05-19T10:22:11.064Z,19.96
2023-05-19T10:23:11.070Z,19.92
2023-05-19T10:24:11.630Z,19.93
2023-05-19T10:25:11.068Z,19.90
2023-05-19T10:26:11.072Z,19.89
2023-05-19T10:27:13.072Z,19.80
2023-05-19T10:28:17.068Z,19.83
2023-05-19T10:29:11.060Z,19.90
2023-05-19T10:30:16.512Z,19.95
2023-05-19T10:31:13.069Z,20.03
2023-05-19T10:32:14.119Z,20.08
2023-05-19T10:33:13.130Z,20.19
2023-05-19T10:34:19.098Z,20.16
2023-05-19T10:35:21.087Z,20.16
2023-05-19T10:36:20.069Z,20.02
2023-05-19T10:37:19.072Z,20.02
2023-05-19T10:38:19.077Z,19.89
2023-05-19T10:39:19.126Z,19.82
2023-05-19T10:40:18.069Z,19.82
2023-05-19T10:41:19.073Z,19.78
2023-05-19T10:42:21.101Z,19.72
2023-05-19T10:43:19.084Z,19.87
2023-05-19T10:44:19.079Z,19.86
2023-05-19T10:45:18.071Z,20.01
2023-05-19T10:46:11.125Z,19.95
2023-05-19T10:47:11.161Z,20.11
2023-05-19T10:48:15.147Z,20.07
2023-05-19T10:49:11.073Z,20.05
2023-05-19T10:50:11.117Z,19.89
2023-05-19T10:51:11.078Z,19.78
2023-05-19T10:52:19.081Z,19.71
2023-05-19T10:53:15.081Z,19.76
2023-05-19T10:54:12.265Z,19.70
2023-05-19T10:55:14.072Z,19.61
2023-05-19T10:56:11.071Z,19.60
2023-05-19T10:57:14.098Z,19.60
2023-05-19T10:58:11.080Z,19.57
2023-05-19T10:59:19.086Z,19.36
2023-05-19T11:00:26.078Z,19.37
2023-05-19T11:01:15.110Z,19.36
2023-05-19T11:02:11.142Z,19.38
2023-05-19T11:03:17.078Z,19.30
2023-05-19T11:04:11.140Z,19.33
2023-05-19T11:05:14.087Z,19.33
2023-05-19T11:06:19.084Z,19.36
2023-05-19T11:07:11.082Z,19.29
2023-05-19T11:08:11.077Z,19.28
2023-05-19T11:10:11.085Z,19.02
2023-05-19T11:11:15.090Z,18.97
2023-05-19T11:12:11.089Z,18.76
2023-05-19T11:13:19.081Z,18.66
2023-05-19T11:14:12.077Z,18.55
2023-05-19T11:15:15.100Z,18.55
2023-05-19T11:16:11.086Z,18.52
2023-05-19T11:17:14.082Z,18.43
2023-05-19T11:18:13.129Z,18.30
2023-05-19T11:19:15.112Z,18.34
2023-05-19T11:20:15.088Z,18.27
2023-05-19T11:21:11.123Z,18.19
2023-05-19T11:22:11.081Z,18.20
2023-05-19T11:23:14.131Z,18.19
2023-05-19T11:24:11.103Z,18.11
2023-05-19T11:25:11.082Z,18.08
2023-05-19T11:26:11.080Z,18.10
2023-05-19T11:27:19.127Z,18.10
2023-05-19T11:28:11.087Z,18.04
2023-05-19T11:29:11.081Z,17.94
2023-05-19T11:30:11.085Z,17.92
2023-05-19T11:31:11.083Z,17.91
2023-05-19T11:32:11.143Z,17.86
2023-05-19T11:33:11.119Z,17.75
2023-05-19T11:34:11.082Z,17.79
2023-05-19T11:35:11.114Z,17.74
2023-05-19T11:36:11.113Z,17.72
2023-05-19T11:37:11.092Z,17.68
2023-05-19T11:38:11.083Z,17.69
2023-05-19T11:39:11.085Z,17.73
2023-05-19T11:40:11.097Z,17.70
2023-05-19T11:41:11.082Z,17.73
2023-05-19T11:42:13.088Z,17.78
2023-05-19T11:43:11.100Z,17.85
2023-05-19T11:44:13.096Z,17.92
2023-05-19T11:45:11.082Z,17.91
2023-05-19T11:46:11.131Z,17.91
2023-05-19T11:47:11.082Z,17.98
2023-05-19T11:48:13.166Z,17.97
2023-05-19T11:49:11.110Z,17.97
2023-05-19T11:50:12.114Z,17.88
2023-05-19T11:51:11.093Z,17.95
2023-05-19T11:52:11.094Z,17.92
2023-05-19T11:53:12.092Z,17.98
2023-05-19T11:54:11.087Z,18.08
2023-05-19T11:55:14.087Z,18.16
2023-05-19T11:56:11.084Z,18.20
2023-05-19T11:57:11.110Z,18.23
2023-05-19T11:58:11.094Z,18.17
2023-05-19T11:59:13.085Z,18.21
2023-05-19T12:00:12.166Z,18.19
2023-05-19T12:01:11.093Z,18.15
2023-05-19T12:02:18.106Z,18.09
2023-05-19T12:03:11.215Z,18.13
2023-05-19T12:04:11.089Z,18.19
2023-05-19T12:05:19.236Z,18.26
2023-05-19T12:06:12.124Z,18.22
2023-05-19T12:07:11.085Z,18.22
2023-05-19T12:08:11.136Z,18.21
2023-05-19T12:09:11.091Z,18.16
2023-05-19T12:10:11.162Z,18.21
2023-05-19T12:11:11.086Z,18.22
2023-05-19T12:12:11.084Z,18.30
2023-05-19T12:13:11.219Z,18.29
2023-05-19T12:14:11.091Z,18.33
2023-05-19T12:15:11.092Z,18.34
2023-05-19T12:16:11.148Z,18.32
2023-05-19T12:17:15.101Z,18.23
2023-05-19T12:18:11.158Z,18.29
2023-05-19T12:19:12.163Z,18.37
2023-05-19T12:20:11.128Z,18.42
2023-05-19T12:21:11.110Z,18.44
2023-05-19T12:22:11.091Z,18.41
2023-05-19T12:23:11.089Z,18.50
2023-05-19T12:24:11.086Z,18.49
2023-05-19T12:25:11.090Z,18.29
2023-05-19T12:26:11.090Z,18.35
2023-05-19T12:27:17.091Z,18.44
2023-05-19T12:28:11.089Z,18.55
2023-05-19T12:29:11.091Z,18.71
2023-05-19T12:30:11.088Z,18.65
2023-05-19T12:31:11.113Z,18.79
2023-05-19T12:32:11.164Z,18.75
2023-05-19T12:33:11.138Z,18.75
2023-05-19T12:34:12.091Z,18.70
2023-05-19T12:35:11.092Z,18.77
2023-05-19T12:36:11.090Z,18.76
2023-05-19T12:37:12.098Z,18.70
2023-05-19T12:38:11.111Z,18.84
2023-05-19T12:39:11.093Z,18.94
2023-05-19T12:40:14.102Z,18.86
2023-05-19T12:41:12.122Z,18.94
2023-05-19T12:42:11.109Z,19.08
2023-05-19T12:43:15.095Z,19.18
2023-05-19T12:44:15.113Z,19.22
2023-05-19T12:45:11.101Z,19.34
2023-05-19T12:46:13.133Z,19.41
2023-05-19T12:47:11.097Z,19.25
2023-05-19T12:48:13.157Z,19.30
2023-05-19T12:49:11.094Z,19.27
2023-05-19T12:50:11.105Z,19.40
2023-05-19T12:51:11.096Z,19.45
2023-05-19T12:52:13.276Z,19.51
2023-05-19T12:53:13.175Z,19.56
2023-05-19T12:54:11.126Z,19.62